createdAt,value
2018-12-13T00:00:15.508Z,13.80
2018-12-13T00:01:15.450Z,14.30
2018-12-13T00:02:15.419Z,14.10
2018-12-13T00:03:15.351Z,14.30
2018-12-13T00:04:15.281Z,14.10
2018-12-13T00:05:15.222Z,15.00
2018-12-13T00:06:15.168Z,15.20
2018-12-13T00:07:15.136Z,14.90
2018-12-13T00:08:15.052Z,13.40
2018-12-13T00:09:14.997Z,15.10
2018-12-13T00:10:14.937Z,13.10
2018-12-13T00:11:14.887Z,13.50
2018-12-13T00:12:14.851Z,13.80
2018-12-13T00:13:14.774Z,15.10
2018-12-13T00:14:14.713Z,12.90
2018-12-13T00:15:14.658Z,13.80
2018-12-13T00:16:14.612Z,14.10
2018-12-13T00:17:14.571Z,16.40
2018-12-13T00:18:14.487Z,13.80
2018-12-13T00:19:14.434Z,15.70
2018-12-13T00:20:14.376Z,13.20
2018-12-13T00:21:14.314Z,13.50
2018-12-13T00:22:14.283Z,13.40
2018-12-13T00:23:14.203Z,12.40
2018-12-13T00:24:14.146Z,13.10
2018-12-13T00:25:14.091Z,12.50
2018-12-13T00:26:14.031Z,12.80
2018-12-13T00:27:14.168Z,13.40
2018-12-13T00:28:13.929Z,12.10
2018-12-13T00:29:13.864Z,11.30
2018-12-13T00:30:13.809Z,11.90
2018-12-13T00:31:13.754Z,12.40
2018-12-13T00:32:13.692Z,12.50
2018-12-13T00:33:13.661Z,11.70
2018-12-13T00:34:13.580Z,11.80
2018-12-13T00:35:13.527Z,11.60
2018-12-13T00:36:13.472Z,12.90
2018-12-13T00:37:13.412Z,13.70
2018-12-13T00:38:13.382Z,13.30
2018-12-13T00:39:13.300Z,13.70
2018-12-13T00:40:13.258Z,13.80
2018-12-13T00:41:13.186Z,13.90
2018-12-13T00:42:13.128Z,13.20
2018-12-13T00:43:13.095Z,14.40
2018-12-13T00:44:13.014Z,12.80
2018-12-13T00:45:12.956Z,13.60
2018-12-13T00:46:12.899Z,12.60
2018-12-13T00:47:12.843Z,12.90
2018-12-13T00:48:12.812Z,12.90
2018-12-13T00:49:12.737Z,12.50
2018-12-13T00:50:12.674Z,12.40
2018-12-13T00:51:12.618Z,13.80
2018-12-13T00:52:12.563Z,12.70
2018-12-13T00:53:12.531Z,14.50
2018-12-13T00:54:12.458Z,12.80
2018-12-13T00:55:12.393Z,13.00
2018-12-13T00:56:12.338Z,13.00
2018-12-13T00:57:12.281Z,13.60
2018-12-13T00:58:12.254Z,13.30
2018-12-13T00:59:12.171Z,14.30
2018-12-13T01:00:12.112Z,13.50
2018-12-13T01:01:12.053Z,13.00
2018-12-13T01:02:11.997Z,13.80
2018-12-13T01:03:11.982Z,14.00
2018-12-13T01:04:11.886Z,13.80
2018-12-13T01:05:11.827Z,12.90
2018-12-13T01:06:11.771Z,15.20
2018-12-13T01:07:11.714Z,15.20
2018-12-13T01:08:11.660Z,14.20
2018-12-13T01:09:11.625Z,12.30
2018-12-13T01:10:11.545Z,14.00
2018-12-13T01:11:11.487Z,13.10
2018-12-13T01:12:11.431Z,13.10
2018-12-13T01:13:11.371Z,12.90
2018-12-13T01:14:11.340Z,12.50
2018-12-13T01:15:11.261Z,15.50
2018-12-13T01:16:11.205Z,13.40
2018-12-13T01:17:11.146Z,13.10
2018-12-13T01:18:11.095Z,12.10
2018-12-13T01:19:11.060Z,13.40
2018-12-13T01:20:10.975Z,12.40
2018-12-13T01:21:10.920Z,13.70
2018-12-13T01:22:10.865Z,13.10
2018-12-13T01:23:10.806Z,12.60
2018-12-13T01:24:10.779Z,13.30
2018-12-13T01:25:10.695Z,13.10
2018-12-13T01:26:10.635Z,13.70
2018-12-13T01:27:10.581Z,13.30
2018-12-13T01:28:10.520Z,14.60
2018-12-13T01:29:10.490Z,13.00
2018-12-13T01:30:10.410Z,14.00
2018-12-13T01:31:10.363Z,14.00
2018-12-13T01:32:10.296Z,12.20
2018-12-13T01:33:10.235Z,13.40
2018-12-13T01:34:10.204Z,11.60
2018-12-13T01:35:10.129Z,12.70
2018-12-13T01:36:10.075Z,12.00
2018-12-13T01:37:10.012Z,13.50
2018-12-13T01:38:09.957Z,12.10
2018-12-13T01:39:09.919Z,12.00
2018-12-13T01:40:09.848Z,12.90
2018-12-13T01:41:09.782Z,11.50
2018-12-13T01:42:09.727Z,11.00
2018-12-13T01:43:10.414Z,10.70
2018-12-13T01:44:09.643Z,11.20
2018-12-13T01:45:09.555Z,10.50
2018-12-13T01:46:09.497Z,11.30
2018-12-13T01:47:09.444Z,11.20
2018-12-13T01:48:09.385Z,10.30
2018-12-13T01:49:09.350Z,10.80
2018-12-13T01:50:09.270Z,11.60
2018-12-13T01:51:09.211Z,10.00
2018-12-13T01:52:09.155Z,10.20
2018-12-13T01:53:09.100Z,11.40
2018-12-13T01:54:09.065Z,10.30
2018-12-13T01:55:08.985Z,11.60
2018-12-13T01:56:08.926Z,10.80
2018-12-13T01:57:08.873Z,12.20
2018-12-13T01:58:08.812Z,10.00
2018-12-13T01:59:08.784Z,12.00
2018-12-13T02:00:08.702Z,10.40
2018-12-13T02:01:08.644Z,10.80
2018-12-13T02:02:08.585Z,12.60
2018-12-13T02:03:08.525Z,10.40
2018-12-13T02:04:08.498Z,11.20
2018-12-13T02:05:08.419Z,11.30
2018-12-13T02:06:08.357Z,10.80
2018-12-13T02:07:08.300Z,11.20
2018-12-13T02:08:08.243Z,11.30
2018-12-13T02:09:08.189Z,12.50
2018-12-13T02:10:08.149Z,11.70
2018-12-13T02:11:08.069Z,11.40
2018-12-13T02:12:08.011Z,11.40
2018-12-13T02:13:07.956Z,11.30
2018-12-13T02:14:07.896Z,11.10
2018-12-13T02:15:07.866Z,11.40
2018-12-13T02:16:07.785Z,10.30
2018-12-13T02:17:07.727Z,10.60
2018-12-13T02:18:07.670Z,11.40
2018-12-13T02:19:07.612Z,10.40
2018-12-13T02:20:07.580Z,10.60
2018-12-13T02:21:07.518Z,10.80
2018-12-13T02:22:07.442Z,10.30
2018-12-13T02:23:07.381Z,9.30
2018-12-13T02:24:07.330Z,9.40
2018-12-13T02:25:07.291Z,9.60
2018-12-13T02:26:07.212Z,9.40
2018-12-13T02:27:07.156Z,9.40
2018-12-13T02:28:07.098Z,9.60
2018-12-13T02:29:07.038Z,9.30
2018-12-13T02:30:07.006Z,8.30
2018-12-13T02:31:06.922Z,10.30
2018-12-13T02:32:06.867Z,8.90
2018-12-13T02:33:06.813Z,8.90
2018-12-13T02:34:06.772Z,8.80
2018-12-13T02:35:06.718Z,10.00
2018-12-13T02:36:06.646Z,9.20
2018-12-13T02:37:06.617Z,8.90
2018-12-13T02:38:06.528Z,8.50
2018-12-13T02:39:06.466Z,9.20
2018-12-13T02:40:06.429Z,7.80
2018-12-13T02:41:06.349Z,9.30
2018-12-13T02:42:06.293Z,8.50
2018-12-13T02:43:06.233Z,8.40
2018-12-13T02:44:06.181Z,8.20
2018-12-13T02:45:06.148Z,8.60
2018-12-13T02:46:06.064Z,9.50
2018-12-13T02:47:06.007Z,10.00
2018-12-13T02:48:05.950Z,9.20
2018-12-13T02:49:05.890Z,9.50
2018-12-13T02:50:05.860Z,8.70
2018-12-13T02:51:05.786Z,9.90
2018-12-13T02:52:05.720Z,8.50
2018-12-13T02:53:05.660Z,9.20
2018-12-13T02:54:05.603Z,8.90
2018-12-13T02:55:05.579Z,9.90
2018-12-13T02:56:05.489Z,7.80
2018-12-13T02:57:05.431Z,7.90
2018-12-13T02:58:05.374Z,8.90
2018-12-13T02:59:05.318Z,8.90
2018-12-13T03:00:05.302Z,10.40
2018-12-13T03:01:05.201Z,9.70
2018-12-13T03:02:05.145Z,9.90
2018-12-13T03:03:05.092Z,10.80
2018-12-13T03:04:05.039Z,9.90
2018-12-13T03:05:04.970Z,10.40
2018-12-13T03:06:04.940Z,9.50
2018-12-13T03:07:04.861Z,10.10
2018-12-13T03:08:04.804Z,9.90
2018-12-13T03:09:04.740Z,10.50
2018-12-13T03:10:04.685Z,11.30
2018-12-13T03:11:04.650Z,9.90
2018-12-13T03:12:04.571Z,11.70
2018-12-13T03:13:04.511Z,10.40
2018-12-13T03:14:04.453Z,10.70
2018-12-13T03:15:04.401Z,10.50
2018-12-13T03:16:04.373Z,9.90
2018-12-13T03:17:04.283Z,10.00
2018-12-13T03:18:04.228Z,10.90
2018-12-13T03:19:04.167Z,9.60
2018-12-13T03:20:04.107Z,11.40
2018-12-13T03:21:04.074Z,10.40
2018-12-13T03:22:03.996Z,11.50
2018-12-13T03:23:03.937Z,11.20
2018-12-13T03:24:03.878Z,12.10
2018-12-13T03:25:03.819Z,10.60
2018-12-13T03:26:03.787Z,11.40
2018-12-13T03:27:03.706Z,10.90
2018-12-13T03:28:03.649Z,10.60
2018-12-13T03:29:03.597Z,11.80
2018-12-13T03:30:03.542Z,11.30
2018-12-13T03:31:03.499Z,10.30
2018-12-13T03:32:03.420Z,11.00
2018-12-13T03:33:03.360Z,10.60
2018-12-13T03:34:03.301Z,11.30
2018-12-13T03:35:03.242Z,13.50
2018-12-13T03:36:03.216Z,10.40
2018-12-13T03:37:03.125Z,10.40
2018-12-13T03:38:03.071Z,10.50
2018-12-13T03:39:03.015Z,10.30
2018-12-13T03:40:02.957Z,10.90
2018-12-13T03:41:02.921Z,10.60
2018-12-13T03:42:02.841Z,11.80
2018-12-13T03:43:02.788Z,11.90
2018-12-13T03:44:02.726Z,12.30
2018-12-13T03:45:02.670Z,11.60
2018-12-13T03:46:02.630Z,11.10
2018-12-13T03:47:02.552Z,11.20
2018-12-13T03:48:02.498Z,10.70
2018-12-13T03:49:02.438Z,10.60
2018-12-13T03:50:02.377Z,12.60
2018-12-13T03:51:02.346Z,13.00
2018-12-13T03:52:02.268Z,10.90
2018-12-13T03:53:02.207Z,11.20
2018-12-13T03:54:02.149Z,13.20
2018-12-13T03:55:02.097Z,13.60
2018-12-13T03:56:02.066Z,11.90
2018-12-13T03:57:01.983Z,11.80
2018-12-13T03:58:01.918Z,13.30
2018-12-13T03:59:01.860Z,11.40
2018-12-13T04:00:01.812Z,13.20
2018-12-13T04:01:01.753Z,12.80
2018-12-13T04:02:01.715Z,11.80
2018-12-13T04:03:01.636Z,12.50
2018-12-13T04:04:01.584Z,13.10
2018-12-13T04:05:01.515Z,11.70
2018-12-13T04:06:01.467Z,11.10
2018-12-13T04:07:01.430Z,11.70
2018-12-13T04:08:01.346Z,13.40
2018-12-13T04:09:01.289Z,11.90
2018-12-13T04:10:01.231Z,12.30
2018-12-13T04:11:01.175Z,11.90
2018-12-13T04:12:01.138Z,12.40
2018-12-13T04:13:01.079Z,13.10
2018-12-13T04:14:01.008Z,12.00
2018-12-13T04:15:00.952Z,12.00
2018-12-13T04:16:00.894Z,10.80
2018-12-13T04:17:00.855Z,12.40
2018-12-13T04:18:00.771Z,13.20
2018-12-13T04:19:00.719Z,14.10
2018-12-13T04:20:00.655Z,10.20
2018-12-13T04:21:00.605Z,12.20
2018-12-13T04:22:00.563Z,13.90
2018-12-13T04:23:00.480Z,13.40
2018-12-13T04:24:00.426Z,12.80
2018-12-13T04:25:00.381Z,13.20
2018-12-13T04:26:00.313Z,11.70
2018-12-13T04:27:00.282Z,13.60
2018-12-13T04:28:00.196Z,12.30
2018-12-13T04:29:00.135Z,13.60
2018-12-13T04:30:00.081Z,13.20
2018-12-13T04:31:00.021Z,14.10
2018-12-13T04:31:59.991Z,14.00
2018-12-13T04:32:59.911Z,14.10
2018-12-13T04:33:59.856Z,13.20
2018-12-13T04:34:59.789Z,14.00
2018-12-13T04:35:59.737Z,14.00
2018-12-13T04:36:59.700Z,14.30
2018-12-13T04:37:59.621Z,13.40
2018-12-13T04:38:59.563Z,14.80
2018-12-13T04:39:59.507Z,14.50
2018-12-13T04:40:59.448Z,13.10
2018-12-13T04:41:59.416Z,14.40
2018-12-13T04:42:59.356Z,13.10
2018-12-13T04:43:59.279Z,12.50
2018-12-13T04:44:59.218Z,14.60
2018-12-13T04:45:59.158Z,13.40
2018-12-13T04:46:59.102Z,14.30
2018-12-13T04:47:59.068Z,13.90
2018-12-13T04:48:58.994Z,14.60
2018-12-13T04:49:58.934Z,13.90
2018-12-13T04:50:58.873Z,15.20
2018-12-13T04:51:58.814Z,13.30
2018-12-13T04:52:58.793Z,13.60
2018-12-13T04:53:58.698Z,14.40
2018-12-13T04:54:58.639Z,14.60
2018-12-13T04:55:58.584Z,15.00
2018-12-13T04:56:58.528Z,15.60
2018-12-13T04:57:58.493Z,14.40
2018-12-13T04:58:58.414Z,14.80
2018-12-13T04:59:58.354Z,15.60
2018-12-13T05:00:58.295Z,15.50
2018-12-13T05:01:58.235Z,14.70
2018-12-13T05:02:58.203Z,14.40
2018-12-13T05:03:58.124Z,15.70
2018-12-13T05:04:58.064Z,16.00
2018-12-13T05:05:58.014Z,14.80
2018-12-13T05:06:57.950Z,17.00
2018-12-13T05:07:57.910Z,14.60
2018-12-13T05:08:57.835Z,14.10
2018-12-13T05:09:57.776Z,15.60
2018-12-13T05:10:57.724Z,14.40
2018-12-13T05:11:57.661Z,13.80
2018-12-13T05:12:57.625Z,15.50
2018-12-13T05:13:57.546Z,14.50
2018-12-13T05:14:57.490Z,16.60
2018-12-13T05:15:57.435Z,15.00
2018-12-13T05:16:57.372Z,16.10
2018-12-13T05:17:57.345Z,17.70
2018-12-13T05:18:57.261Z,15.90
2018-12-13T05:19:57.201Z,15.10
2018-12-13T05:20:57.141Z,13.80
2018-12-13T05:21:57.087Z,15.00
2018-12-13T05:22:57.114Z,15.00
2018-12-13T05:23:56.973Z,15.20
2018-12-13T05:24:56.914Z,16.50
2018-12-13T05:25:56.859Z,15.80
2018-12-13T05:26:56.804Z,14.10
2018-12-13T05:27:56.766Z,14.20
2018-12-13T05:28:56.684Z,16.20
2018-12-13T05:29:56.623Z,15.40
2018-12-13T05:30:56.569Z,14.90
2018-12-13T05:31:56.509Z,16.00
2018-12-13T05:32:56.478Z,14.30
2018-12-13T05:33:56.397Z,14.70
2018-12-13T05:34:56.339Z,14.00
2018-12-13T05:35:56.278Z,15.10
2018-12-13T05:36:56.217Z,15.40
2018-12-13T05:37:56.188Z,14.70
2018-12-13T05:38:56.106Z,14.60
2018-12-13T05:39:56.050Z,14.90
2018-12-13T05:40:55.990Z,15.10
2018-12-13T05:41:55.930Z,15.10
2018-12-13T05:42:55.903Z,14.90
2018-12-13T05:43:55.817Z,14.90
2018-12-13T05:44:55.780Z,14.80
2018-12-13T05:45:55.702Z,15.90
2018-12-13T05:46:55.650Z,14.60
2018-12-13T05:47:55.590Z,15.20
2018-12-13T05:48:55.556Z,16.20
2018-12-13T05:49:55.472Z,15.30
2018-12-13T05:50:55.412Z,15.30
2018-12-13T05:51:55.356Z,14.80
2018-12-13T05:52:55.297Z,13.50
2018-12-13T05:53:55.264Z,16.90
2018-12-13T05:54:55.183Z,17.00
2018-12-13T05:55:55.126Z,16.80
2018-12-13T05:56:55.066Z,15.50
2018-12-13T05:57:55.009Z,16.40
2018-12-13T05:58:55.033Z,16.30
2018-12-13T05:59:54.891Z,16.40
2018-12-13T06:00:54.830Z,19.20
2018-12-13T06:01:54.775Z,16.80
2018-12-13T06:02:54.721Z,17.50
2018-12-13T06:03:54.684Z,16.50
2018-12-13T06:04:54.600Z,15.50
2018-12-13T06:05:54.545Z,15.00
2018-12-13T06:06:54.493Z,18.00
2018-12-13T06:07:55.052Z,15.70
2018-12-13T06:08:54.397Z,18.90
2018-12-13T06:09:54.313Z,17.00
2018-12-13T06:10:54.256Z,17.50
2018-12-13T06:11:54.193Z,17.30
2018-12-13T06:12:54.138Z,17.50
2018-12-13T06:13:54.107Z,15.90
2018-12-13T06:14:54.023Z,16.90
2018-12-13T06:15:53.963Z,18.00
2018-12-13T06:16:53.908Z,16.90
2018-12-13T06:17:53.849Z,16.60
2018-12-13T06:18:53.814Z,17.70
2018-12-13T06:19:53.734Z,18.30
2018-12-13T06:20:53.675Z,19.20
2018-12-13T06:21:53.618Z,15.90
2018-12-13T06:22:53.565Z,18.30
2018-12-13T06:23:53.526Z,17.30
2018-12-13T06:24:53.445Z,18.80
2018-12-13T06:25:53.387Z,18.40
2018-12-13T06:26:53.330Z,17.70
2018-12-13T06:27:53.273Z,19.60
2018-12-13T06:28:53.247Z,19.10
2018-12-13T06:29:58.641Z,17.50
2018-12-13T06:30:53.096Z,18.70
2018-12-13T06:31:53.041Z,17.80
2018-12-13T06:32:52.986Z,17.30
2018-12-13T06:33:52.924Z,17.50
2018-12-13T06:34:52.894Z,17.40
2018-12-13T06:35:52.811Z,19.70
2018-12-13T06:36:52.752Z,17.80
2018-12-13T06:37:52.693Z,18.00
2018-12-13T06:38:52.635Z,19.00
2018-12-13T06:39:52.598Z,18.70
2018-12-13T06:40:52.519Z,19.50
2018-12-13T06:41:52.459Z,17.90
2018-12-13T06:42:52.404Z,19.00
2018-12-13T06:43:52.437Z,19.00
2018-12-13T06:44:52.309Z,19.50
2018-12-13T06:45:52.233Z,19.20
2018-12-13T06:46:52.170Z,19.10
2018-12-13T06:47:52.115Z,19.20
2018-12-13T06:48:52.055Z,17.90
2018-12-13T06:49:52.028Z,17.80
2018-12-13T06:50:51.937Z,18.40
2018-12-13T06:51:51.885Z,18.60
2018-12-13T06:52:51.828Z,17.60
2018-12-13T06:53:51.766Z,18.70
2018-12-13T06:54:51.732Z,17.20
2018-12-13T06:55:51.652Z,19.60
2018-12-13T06:56:51.589Z,17.50
2018-12-13T06:57:51.537Z,21.20
2018-12-13T06:58:51.478Z,19.00
2018-12-13T06:59:51.446Z,16.10
2018-12-13T07:00:51.363Z,17.60
2018-12-13T07:01:51.303Z,18.80
2018-12-13T07:02:51.248Z,19.00
2018-12-13T07:03:51.193Z,17.00
2018-12-13T07:04:51.157Z,17.80
2018-12-13T07:05:51.072Z,19.60
2018-12-13T07:06:51.015Z,18.90
2018-12-13T07:07:50.959Z,19.00
2018-12-13T07:08:50.900Z,17.10
2018-12-13T07:09:50.871Z,18.30
2018-12-13T07:10:50.785Z,16.50
2018-12-13T07:11:50.724Z,16.30
2018-12-13T07:12:50.666Z,19.60
2018-12-13T07:13:50.615Z,17.50
2018-12-13T07:14:50.579Z,16.60
2018-12-13T07:15:50.496Z,17.80
2018-12-13T07:16:50.441Z,18.40
2018-12-13T07:17:50.382Z,17.80
2018-12-13T07:18:50.322Z,15.90
2018-12-13T07:19:50.290Z,17.30
2018-12-13T07:20:50.210Z,18.60
2018-12-13T07:21:50.151Z,16.20
2018-12-13T07:22:50.092Z,18.30
2018-12-13T07:23:50.046Z,15.90
2018-12-13T07:24:50.005Z,18.40
2018-12-13T07:25:49.918Z,16.80
2018-12-13T07:26:49.865Z,18.00
2018-12-13T07:27:49.807Z,17.50
2018-12-13T07:28:49.751Z,17.20
2018-12-13T07:29:49.719Z,17.90
2018-12-13T07:30:49.638Z,16.30
2018-12-13T07:31:49.597Z,18.40
2018-12-13T07:32:49.511Z,18.90
2018-12-13T07:33:49.458Z,17.00
2018-12-13T07:34:49.411Z,17.00
2018-12-13T07:35:49.380Z,20.20
2018-12-13T07:36:49.292Z,17.40
2018-12-13T07:37:49.229Z,16.40
2018-12-13T07:38:49.168Z,19.00
2018-12-13T07:39:49.120Z,17.90
2018-12-13T07:40:49.083Z,17.30
2018-12-13T07:41:48.999Z,18.30
2018-12-13T07:42:48.939Z,16.80
2018-12-13T07:43:48.884Z,17.20
2018-12-13T07:44:48.825Z,18.20
2018-12-13T07:45:48.793Z,20.60
2018-12-13T07:46:48.712Z,21.40
2018-12-13T07:47:48.658Z,19.80
2018-12-13T07:48:48.598Z,18.60
2018-12-13T07:49:48.536Z,19.20
2018-12-13T07:50:48.504Z,19.90
2018-12-13T07:51:48.425Z,17.60
2018-12-13T07:52:48.365Z,19.80
2018-12-13T07:53:48.306Z,23.30
2018-12-13T07:54:48.251Z,18.00
2018-12-13T07:55:48.217Z,19.20
2018-12-13T07:56:48.136Z,16.90
2018-12-13T07:57:48.077Z,20.00
2018-12-13T07:58:48.023Z,20.00
2018-12-13T07:59:47.962Z,18.50
2018-12-13T08:00:47.931Z,19.90
2018-12-13T08:01:47.851Z,19.20
2018-12-13T08:02:47.792Z,19.60
2018-12-13T08:03:47.733Z,19.30
2018-12-13T08:04:47.677Z,24.70
2018-12-13T08:05:47.640Z,20.60
2018-12-13T08:06:47.564Z,18.60
2018-12-13T08:07:47.503Z,19.40
2018-12-13T08:08:47.443Z,20.40
2018-12-13T08:09:47.389Z,19.10
2018-12-13T08:10:47.355Z,21.60
2018-12-13T08:11:47.273Z,19.70
2018-12-13T08:12:47.216Z,18.30
2018-12-13T08:13:47.159Z,21.40
2018-12-13T08:14:47.104Z,20.30
2018-12-13T08:15:47.067Z,20.90
2018-12-13T08:16:46.991Z,20.70
2018-12-13T08:17:46.929Z,19.70
2018-12-13T08:18:46.872Z,19.30
2018-12-13T08:19:46.814Z,22.10
2018-12-13T08:20:46.780Z,18.80
2018-12-13T08:21:46.699Z,17.30
2018-12-13T08:22:46.640Z,18.90
2018-12-13T08:23:46.584Z,19.60
2018-12-13T08:24:46.525Z,18.90
2018-12-13T08:25:46.495Z,18.40
2018-12-13T08:26:46.410Z,19.40
2018-12-13T08:27:46.355Z,19.00
2018-12-13T08:28:46.296Z,18.90
2018-12-13T08:29:46.239Z,20.40
2018-12-13T08:30:46.207Z,22.60
2018-12-13T08:31:46.126Z,18.30
2018-12-13T08:32:46.065Z,19.20
2018-12-13T08:33:46.011Z,19.10
2018-12-13T08:34:45.954Z,18.50
2018-12-13T08:35:45.923Z,19.90
2018-12-13T08:36:45.833Z,19.50
2018-12-13T08:37:45.780Z,21.00
2018-12-13T08:38:45.725Z,19.50
2018-12-13T08:39:45.666Z,18.70
2018-12-13T08:40:45.639Z,18.80
2018-12-13T08:41:45.553Z,19.30
2018-12-13T08:42:45.495Z,19.80
2018-12-13T08:43:45.440Z,21.00
2018-12-13T08:44:45.378Z,20.50
2018-12-13T08:45:45.361Z,21.50
2018-12-13T08:46:45.266Z,20.20
2018-12-13T08:47:45.211Z,19.40
2018-12-13T08:48:45.151Z,18.60
2018-12-13T08:49:45.097Z,18.40
2018-12-13T08:50:45.025Z,18.10
2018-12-13T08:51:45.001Z,23.50
2018-12-13T08:52:44.921Z,19.40
2018-12-13T08:53:44.863Z,19.60
2018-12-13T08:54:44.806Z,18.00
2018-12-13T08:55:44.753Z,19.80
2018-12-13T08:56:44.728Z,18.60
2018-12-13T08:57:44.637Z,23.60
2018-12-13T08:58:44.577Z,23.00
2018-12-13T08:59:44.523Z,22.50
2018-12-13T09:00:44.466Z,19.70
2018-12-13T09:01:44.432Z,19.20
2018-12-13T09:02:44.352Z,18.60
2018-12-13T09:03:44.292Z,18.30
2018-12-13T09:04:44.239Z,19.60
2018-12-13T09:05:44.237Z,19.30
2018-12-13T09:06:44.146Z,20.30
2018-12-13T09:07:44.067Z,19.00
2018-12-13T09:08:44.007Z,20.30
2018-12-13T09:09:43.952Z,18.10
2018-12-13T09:10:43.892Z,19.10
2018-12-13T09:11:43.861Z,18.20
2018-12-13T09:12:43.778Z,20.20
2018-12-13T09:13:43.723Z,20.50
2018-12-13T09:14:43.667Z,22.50
2018-12-13T09:15:43.608Z,19.40
2018-12-13T09:16:43.576Z,20.00
2018-12-13T09:17:43.493Z,19.80
2018-12-13T09:18:43.438Z,20.50
2018-12-13T09:19:43.387Z,21.30
2018-12-13T09:20:43.327Z,20.00
2018-12-13T09:21:43.291Z,20.30
2018-12-13T09:22:43.209Z,21.00
2018-12-13T09:23:43.152Z,19.90
2018-12-13T09:24:43.097Z,18.30
2018-12-13T09:25:43.038Z,18.70
2018-12-13T09:26:43.007Z,18.00
2018-12-13T09:27:42.923Z,20.90
2018-12-13T09:28:42.868Z,19.60
2018-12-13T09:29:42.808Z,18.60
2018-12-13T09:30:42.754Z,20.40
2018-12-13T09:31:42.721Z,20.90
2018-12-13T09:32:42.634Z,19.30
2018-12-13T09:33:42.583Z,20.00
2018-12-13T09:34:42.524Z,20.40
2018-12-13T09:35:42.463Z,20.20
2018-12-13T09:36:42.444Z,21.80
2018-12-13T09:37:47.574Z,21.50
2018-12-13T09:38:42.293Z,23.40
2018-12-13T09:39:42.244Z,22.70
2018-12-13T09:40:42.181Z,22.20
2018-12-13T09:41:42.123Z,20.20
2018-12-13T09:42:42.089Z,21.50
2018-12-13T09:43:42.011Z,22.00
2018-12-13T09:44:41.955Z,21.00
2018-12-13T09:45:41.893Z,22.00
2018-12-13T09:46:41.839Z,21.80
2018-12-13T09:47:41.807Z,22.50
2018-12-13T09:48:41.723Z,22.80
2018-12-13T09:49:41.668Z,21.40
2018-12-13T09:50:41.612Z,22.80
2018-12-13T09:51:41.550Z,22.40
2018-12-13T09:52:41.526Z,21.90
2018-12-13T09:53:41.439Z,20.70
2018-12-13T09:54:41.384Z,23.30
2018-12-13T09:55:41.327Z,21.80
2018-12-13T09:56:41.269Z,21.00
2018-12-13T09:57:41.234Z,20.40
2018-12-13T09:58:41.160Z,22.90
2018-12-13T09:59:41.094Z,21.30
2018-12-13T10:00:41.039Z,20.60
2018-12-13T10:01:40.983Z,21.60
2018-12-13T10:02:40.950Z,22.80
2018-12-13T10:03:40.868Z,25.10
2018-12-13T10:04:40.814Z,24.40
2018-12-13T10:05:40.755Z,20.50
2018-12-13T10:06:40.699Z,21.60
2018-12-13T10:07:40.659Z,20.00
2018-12-13T10:08:46.167Z,21.30
2018-12-13T10:09:40.523Z,21.80
2018-12-13T10:10:40.469Z,19.40
2018-12-13T10:11:40.418Z,20.10
2018-12-13T10:12:40.373Z,21.80
2018-12-13T10:13:40.299Z,20.50
2018-12-13T10:14:40.247Z,21.40
2018-12-13T10:15:40.173Z,20.20
2018-12-13T10:16:40.127Z,23.50
2018-12-13T10:17:40.092Z,20.30
2018-12-13T10:18:40.035Z,20.20
2018-12-13T10:19:39.954Z,19.30
2018-12-13T10:20:39.901Z,20.80
2018-12-13T10:21:39.843Z,19.50
2018-12-13T10:22:39.788Z,25.90
2018-12-13T10:23:39.751Z,20.60
2018-12-13T10:24:39.674Z,20.10
2018-12-13T10:25:39.616Z,18.90
2018-12-13T10:26:39.557Z,19.30
2018-12-13T10:27:39.505Z,17.30
2018-12-13T10:28:39.467Z,19.20
2018-12-13T10:29:39.383Z,19.60
2018-12-13T10:30:39.328Z,17.90
2018-12-13T10:31:39.270Z,18.50
2018-12-13T10:32:39.213Z,20.00
2018-12-13T10:33:39.181Z,18.10
2018-12-13T10:34:39.102Z,18.70
2018-12-13T10:35:39.043Z,19.80
2018-12-13T10:36:38.987Z,18.30
2018-12-13T10:37:38.937Z,19.50
2018-12-13T10:38:38.901Z,16.00
2018-12-13T10:39:38.817Z,18.10
2018-12-13T10:40:38.759Z,17.00
2018-12-13T10:41:38.704Z,15.90
2018-12-13T10:42:38.646Z,16.70
2018-12-13T10:43:38.611Z,16.90
2018-12-13T10:44:38.537Z,17.00
2018-12-13T10:45:38.473Z,16.60
2018-12-13T10:46:38.421Z,14.90
2018-12-13T10:47:38.361Z,16.40
2018-12-13T10:48:38.331Z,14.80
2018-12-13T10:49:38.247Z,17.00
2018-12-13T10:50:38.197Z,18.60
2018-12-13T10:51:38.132Z,16.20
2018-12-13T10:52:38.081Z,16.10
2018-12-13T10:53:38.045Z,16.60
2018-12-13T10:54:37.962Z,14.90
2018-12-13T10:55:37.906Z,16.00
2018-12-13T10:56:37.851Z,15.70
2018-12-13T10:57:37.824Z,17.90
2018-12-13T10:58:37.757Z,15.50
2018-12-13T10:59:37.680Z,16.60
2018-12-13T11:00:37.621Z,18.40
2018-12-13T11:01:37.565Z,16.60
2018-12-13T11:02:37.506Z,14.80
2018-12-13T11:03:37.474Z,15.10
2018-12-13T11:04:37.396Z,13.70
2018-12-13T11:05:37.339Z,16.60
2018-12-13T11:06:37.281Z,13.70
2018-12-13T11:07:37.225Z,14.60
2018-12-13T11:08:37.209Z,14.40
2018-12-13T11:09:37.112Z,15.40
2018-12-13T11:10:37.055Z,13.90
2018-12-13T11:11:36.995Z,14.60
2018-12-13T11:12:36.939Z,13.90
2018-12-13T11:13:36.884Z,14.10
2018-12-13T11:14:36.853Z,15.10
2018-12-13T11:15:36.773Z,15.30
2018-12-13T11:16:36.711Z,13.80
2018-12-13T11:17:36.660Z,14.80
2018-12-13T11:18:36.599Z,13.80
2018-12-13T11:19:36.567Z,12.10
2018-12-13T11:20:36.486Z,13.20
2018-12-13T11:21:36.429Z,12.10
2018-12-13T11:22:36.373Z,11.20
2018-12-13T11:23:36.316Z,12.60
2018-12-13T11:24:36.282Z,11.40
2018-12-13T11:25:36.208Z,12.20
2018-12-13T11:26:36.154Z,12.20
2018-12-13T11:27:36.096Z,11.60
2018-12-13T11:28:36.033Z,10.70
2018-12-13T11:29:36.004Z,11.40
2018-12-13T11:30:35.925Z,11.10
2018-12-13T11:31:35.863Z,11.70
2018-12-13T11:32:35.809Z,10.50
2018-12-13T11:33:35.752Z,10.30
2018-12-13T11:34:35.717Z,11.20
2018-12-13T11:35:35.643Z,9.90
2018-12-13T11:36:35.579Z,10.20
2018-12-13T11:37:35.526Z,10.30
2018-12-13T11:38:35.471Z,10.00
2018-12-13T11:39:35.435Z,9.40
2018-12-13T11:40:35.356Z,8.50
2018-12-13T11:41:35.297Z,10.20
2018-12-13T11:42:35.241Z,9.00
2018-12-13T11:43:35.182Z,9.40
2018-12-13T11:44:35.156Z,9.00
2018-12-13T11:45:35.071Z,7.70
2018-12-13T11:46:35.017Z,8.80
2018-12-13T11:47:34.960Z,9.10
2018-12-13T11:48:34.901Z,10.20
2018-12-13T11:49:34.874Z,9.10
2018-12-13T11:50:34.790Z,8.10
2018-12-13T11:51:34.735Z,9.80
2018-12-13T11:52:34.676Z,9.90
2018-12-13T11:53:34.622Z,9.00
2018-12-13T11:54:34.584Z,9.40
2018-12-13T11:55:34.504Z,10.00
2018-12-13T11:56:34.450Z,8.70
2018-12-13T11:57:34.390Z,9.20
2018-12-13T11:58:34.335Z,9.50
2018-12-13T11:59:34.299Z,10.30
2018-12-13T12:00:34.221Z,10.30
2018-12-13T12:01:34.169Z,10.70
2018-12-13T12:02:34.109Z,10.00
2018-12-13T12:03:34.054Z,10.40
2018-12-13T12:04:34.020Z,9.90
2018-12-13T12:05:33.940Z,9.30
2018-12-13T12:06:33.884Z,10.60
2018-12-13T12:07:33.919Z,10.30
2018-12-13T12:08:33.770Z,9.80
2018-12-13T12:09:33.738Z,9.40
2018-12-13T12:10:33.658Z,9.90
2018-12-13T12:11:33.599Z,9.60
2018-12-13T12:12:33.543Z,9.90
2018-12-13T12:13:33.485Z,11.20
2018-12-13T12:14:33.458Z,10.40
2018-12-13T12:15:33.374Z,9.90
2018-12-13T12:16:33.322Z,11.00
2018-12-13T12:17:33.270Z,9.80
2018-12-13T12:18:33.203Z,10.60
2018-12-13T12:19:33.172Z,10.10
2018-12-13T12:20:33.093Z,10.80
2018-12-13T12:21:33.039Z,10.10
2018-12-13T12:22:32.978Z,10.40
2018-12-13T12:23:32.926Z,11.90
2018-12-13T12:24:32.863Z,11.10
2018-12-13T12:25:32.832Z,10.70
2018-12-13T12:26:32.753Z,9.90
2018-12-13T12:27:32.703Z,10.20
2018-12-13T12:28:32.642Z,10.90
2018-12-13T12:29:32.583Z,10.30
2018-12-13T12:30:32.553Z,9.80
2018-12-13T12:31:32.467Z,10.60
2018-12-13T12:32:32.420Z,11.60
2018-12-13T12:33:32.364Z,10.90
2018-12-13T12:34:32.301Z,10.90
2018-12-13T12:35:32.271Z,9.80
2018-12-13T12:36:32.196Z,11.00
2018-12-13T12:37:32.132Z,11.00
2018-12-13T12:38:32.082Z,10.10
2018-12-13T12:39:32.020Z,10.10
2018-12-13T12:40:31.989Z,10.10
2018-12-13T12:41:31.909Z,10.10
2018-12-13T12:42:31.849Z,9.20
2018-12-13T12:43:31.798Z,9.30
2018-12-13T12:44:31.735Z,10.20
2018-12-13T12:45:31.708Z,10.00
2018-12-13T12:46:31.630Z,9.70
2018-12-13T12:47:31.571Z,9.30
2018-12-13T12:48:31.515Z,9.00
2018-12-13T12:49:31.458Z,9.60
2018-12-13T12:50:31.423Z,9.80
2018-12-13T12:51:31.347Z,9.50
2018-12-13T12:52:31.288Z,9.30
2018-12-13T12:53:31.237Z,8.70
2018-12-13T12:54:31.174Z,8.50